createdAt,value
2019-05-14T00:01:26.095Z,4.03
2019-05-14T00:03:56.694Z,2.27
2019-05-14T00:06:27.674Z,3.53
2019-05-14T00:08:58.454Z,2.50
2019-05-14T00:11:31.212Z,4.90
2019-05-14T00:14:02.147Z,7.50
2019-05-14T00:16:32.739Z,4.40
2019-05-14T00:19:03.394Z,12.77
2019-05-14T00:21:34.130Z,25.40
2019-05-14T00:24:11.441Z,17.13
2019-05-14T00:26:42.777Z,20.33
2019-05-14T00:29:13.463Z,14.07
2019-05-14T00:31:44.009Z,13.97
2019-05-14T00:34:14.764Z,14.23
2019-05-14T00:36:46.730Z,11.80
2019-05-14T00:39:17.291Z,5.47
2019-05-14T00:41:48.184Z,4.43
2019-05-14T00:44:18.776Z,3.53
2019-05-14T00:46:51.469Z,2.50
2019-05-14T00:49:21.560Z,5.77
2019-05-14T00:51:52.131Z,4.80
2019-05-14T00:54:22.657Z,2.50
2019-05-14T00:56:53.166Z,3.00
2019-05-14T00:59:23.715Z,2.83
2019-05-14T01:01:54.248Z,4.20
2019-05-14T01:04:24.753Z,2.83
2019-05-14T01:06:55.367Z,3.33
2019-05-14T01:09:25.976Z,3.80
2019-05-14T01:11:57.445Z,3.60
2019-05-14T01:14:28.150Z,4.50
2019-05-14T01:16:58.722Z,2.50
2019-05-14T01:19:30.987Z,3.40
2019-05-14T01:22:01.846Z,2.93
2019-05-14T01:24:32.457Z,5.30
2019-05-14T01:27:03.034Z,2.53
2019-05-14T01:29:33.651Z,2.43
2019-05-14T01:32:04.193Z,3.47
2019-05-14T01:34:34.694Z,2.90
2019-05-14T01:37:05.313Z,2.20
2019-05-14T01:39:35.808Z,2.53
2019-05-14T01:42:06.335Z,2.80
2019-05-14T01:44:41.239Z,2.60
2019-05-14T01:47:12.659Z,3.43
2019-05-14T01:49:43.513Z,2.80
2019-05-14T01:52:14.277Z,5.03
2019-05-14T01:54:44.839Z,3.87
2019-05-14T01:57:15.728Z,2.90
2019-05-14T01:59:46.439Z,4.57
2019-05-14T02:02:17.114Z,3.23
2019-05-14T02:07:37.066Z,5.83
2019-05-14T02:10:08.594Z,3.73
2019-05-14T02:12:39.371Z,2.67
2019-05-14T02:15:12.089Z,2.70
2019-05-14T02:20:32.190Z,3.37
2019-05-14T02:23:02.822Z,3.30
2019-05-14T02:25:33.438Z,3.10
2019-05-14T02:28:03.957Z,3.47
2019-05-14T02:30:48.208Z,3.23
2019-05-14T02:33:09.235Z,3.30
2019-05-14T02:35:39.775Z,4.30
2019-05-14T02:38:10.560Z,5.43
2019-05-14T02:40:41.195Z,8.50
2019-05-14T02:43:11.662Z,3.40
2019-05-14T02:46:00.827Z,3.10
2019-05-14T02:48:14.419Z,3.50
2019-05-14T02:50:45.004Z,3.60
2019-05-14T02:53:15.496Z,4.17
2019-05-14T02:55:46.114Z,4.57
2019-05-14T02:58:20.500Z,3.57
2019-05-14T03:00:49.788Z,5.03
2019-05-14T03:03:20.446Z,3.23
2019-05-14T03:05:50.954Z,3.10
2019-05-14T03:08:21.468Z,2.97
2019-05-14T03:10:52.021Z,5.13
2019-05-14T03:13:22.625Z,2.87
2019-05-14T03:15:53.830Z,5.43
2019-05-14T03:18:24.414Z,4.50
2019-05-14T03:20:54.999Z,3.53
2019-05-14T03:23:25.544Z,5.17
2019-05-14T03:25:56.085Z,4.37
2019-05-14T03:28:30.071Z,4.33
2019-05-14T03:31:03.214Z,3.57
2019-05-14T03:33:34.067Z,3.33
2019-05-14T03:36:08.923Z,3.50
2019-05-14T03:38:39.700Z,4.37
2019-05-14T03:41:13.602Z,6.03
2019-05-14T03:43:41.606Z,4.00
2019-05-14T03:46:13.223Z,3.30
2019-05-14T03:48:43.769Z,7.33
2019-05-14T03:51:14.312Z,5.57
2019-05-14T03:53:57.184Z,3.17
2019-05-14T03:56:19.190Z,3.63
2019-05-14T03:58:49.648Z,3.53
2019-05-14T04:01:20.728Z,3.93
2019-05-14T04:03:51.714Z,3.40
2019-05-14T04:06:23.360Z,3.13
2019-05-14T04:08:54.656Z,4.87
2019-05-14T04:11:29.374Z,4.60
2019-05-14T04:14:01.177Z,3.70
2019-05-14T04:16:33.811Z,5.00
2019-05-14T04:19:04.811Z,5.83
2019-05-14T04:21:39.825Z,4.20
2019-05-14T04:24:12.170Z,3.57
2019-05-14T04:26:58.299Z,3.20
2019-05-14T04:29:19.818Z,3.80
2019-05-14T04:31:52.080Z,3.73
2019-05-14T04:34:22.867Z,4.10
2019-05-14T04:36:53.539Z,3.30
2019-05-14T04:39:24.183Z,3.10
2019-05-14T04:41:54.759Z,4.60
2019-05-14T04:44:25.282Z,3.20
2019-05-14T04:46:55.891Z,3.70
2019-05-14T04:49:29.046Z,5.00
2019-05-14T04:51:59.587Z,3.30
2019-05-14T04:54:30.568Z,3.07
2019-05-14T04:57:01.213Z,4.83
2019-05-14T04:59:31.763Z,4.70
2019-05-14T05:02:02.270Z,3.70
2019-05-14T05:04:32.792Z,6.23
2019-05-14T05:07:03.453Z,3.20
2019-05-14T05:09:33.959Z,4.23
2019-05-14T05:14:53.787Z,5.80
2019-05-14T05:17:40.046Z,4.10
2019-05-14T05:19:59.082Z,3.93
2019-05-14T05:22:28.695Z,4.17
2019-05-14T05:24:59.431Z,7.87
2019-05-14T05:27:29.949Z,11.17
2019-05-14T05:30:00.462Z,4.90
2019-05-14T05:32:31.026Z,4.97
2019-05-14T05:35:01.528Z,3.57
2019-05-14T05:37:32.178Z,3.43
2019-05-14T05:40:02.803Z,8.00
2019-05-14T05:42:33.381Z,8.07
2019-05-14T05:45:03.958Z,4.27
2019-05-14T05:47:34.534Z,4.93
2019-05-14T05:50:05.424Z,3.73
2019-05-14T05:52:38.525Z,4.47
2019-05-14T05:55:09.266Z,4.07
2019-05-14T05:57:39.962Z,4.40
2019-05-14T06:00:11.041Z,4.33
2019-05-14T06:02:41.574Z,3.83
2019-05-14T06:05:12.139Z,5.30
2019-05-14T06:07:42.635Z,4.63
2019-05-14T06:10:13.248Z,5.33
2019-05-14T06:12:43.765Z,4.37
2019-05-14T06:15:14.497Z,5.23
2019-05-14T06:17:45.119Z,5.37
2019-05-14T06:20:15.982Z,3.93
2019-05-14T06:22:48.765Z,3.97
2019-05-14T06:25:20.983Z,4.70
2019-05-14T06:27:51.036Z,4.30
2019-05-14T06:30:35.341Z,3.90
2019-05-14T06:33:08.996Z,5.50
2019-05-14T06:35:39.664Z,7.83
2019-05-14T06:38:10.514Z,8.20
2019-05-14T06:40:41.929Z,7.33
2019-05-14T06:43:12.587Z,5.07
2019-05-14T06:48:30.738Z,8.97
2019-05-14T06:50:58.326Z,6.13
2019-05-14T06:53:29.382Z,7.60
2019-05-14T06:56:00.255Z,6.67
2019-05-14T06:58:30.947Z,5.83
2019-05-14T07:01:01.539Z,6.07
2019-05-14T07:03:32.190Z,7.57
2019-05-14T07:06:02.745Z,6.73
2019-05-14T07:11:22.340Z,5.70
2019-05-14T07:13:52.940Z,7.17
2019-05-14T07:16:23.539Z,6.50
2019-05-14T07:18:54.418Z,6.60
2019-05-14T07:21:25.064Z,7.97
2019-05-14T07:23:55.592Z,6.73
2019-05-14T07:26:26.130Z,6.60
2019-05-14T07:28:58.904Z,6.40
2019-05-14T07:34:19.215Z,7.60
2019-05-14T07:36:50.088Z,9.37
2019-05-14T07:39:20.569Z,7.17
2019-05-14T07:41:51.183Z,10.57
2019-05-14T07:44:21.651Z,15.00
2019-05-14T07:46:52.218Z,8.13
2019-05-14T07:49:22.782Z,8.23
2019-05-14T07:51:53.344Z,6.43
2019-05-14T07:54:28.282Z,11.87
2019-05-14T07:56:59.535Z,8.23
2019-05-14T07:59:30.109Z,6.80
2019-05-14T08:02:00.660Z,6.20
2019-05-14T08:04:31.205Z,9.77
2019-05-14T08:07:01.792Z,6.97
2019-05-14T08:09:32.404Z,10.07
2019-05-14T08:12:03.014Z,7.33
2019-05-14T08:14:42.079Z,9.03
2019-05-14T08:17:05.810Z,7.83
2019-05-14T08:19:38.356Z,8.23
2019-05-14T08:22:09.557Z,9.10
2019-05-14T08:24:40.223Z,9.00
2019-05-14T08:27:10.786Z,9.67
2019-05-14T08:29:41.298Z,8.23
2019-05-14T08:32:11.796Z,8.33
2019-05-14T08:34:42.376Z,8.87
2019-05-14T08:37:12.933Z,11.77
2019-05-14T08:39:43.394Z,5.47
2019-05-14T08:42:13.909Z,9.27
2019-05-14T08:44:47.865Z,9.20
2019-05-14T08:47:18.406Z,10.23
2019-05-14T08:49:50.847Z,7.97
2019-05-14T08:52:21.263Z,9.23
2019-05-14T08:57:34.371Z,8.20
2019-05-14T09:00:05.159Z,5.90
2019-05-14T09:02:35.792Z,11.83
2019-05-14T09:07:48.995Z,12.53
2019-05-14T09:10:19.775Z,6.30
2019-05-14T09:12:51.324Z,8.13
2019-05-14T09:15:22.023Z,8.43
2019-05-14T09:17:52.545Z,11.03
2019-05-14T09:20:23.115Z,6.43
2019-05-14T09:22:53.721Z,7.57
2019-05-14T09:25:24.408Z,11.40
2019-05-14T09:27:58.410Z,11.23
2019-05-14T09:30:28.940Z,10.33
2019-05-14T09:32:59.651Z,5.80
2019-05-14T09:35:30.184Z,5.33
2019-05-14T09:38:00.722Z,6.10
2019-05-14T09:40:31.337Z,9.43
2019-05-14T09:43:01.865Z,8.60
2019-05-14T09:45:32.461Z,7.33
2019-05-14T09:48:02.981Z,6.37
2019-05-14T09:50:33.544Z,5.97
2019-05-14T09:53:04.118Z,7.27
2019-05-14T09:55:34.667Z,7.27
2019-05-14T09:58:05.249Z,5.47
2019-05-14T10:03:24.466Z,8.70
2019-05-14T10:05:55.021Z,7.67
2019-05-14T10:08:25.607Z,9.20
2019-05-14T10:10:56.078Z,3.97
2019-05-14T10:13:28.193Z,6.50
2019-05-14T10:15:59.854Z,4.80
2019-05-14T10:18:30.384Z,5.33
2019-05-14T10:21:00.931Z,4.47
2019-05-14T10:23:31.497Z,3.00
2019-05-14T10:26:02.073Z,5.33
2019-05-14T10:28:32.675Z,4.27
2019-05-14T10:31:03.833Z,3.67
2019-05-14T10:33:34.399Z,3.43
2019-05-14T10:36:04.971Z,4.97
2019-05-14T10:38:35.662Z,2.90
2019-05-14T10:41:08.990Z,3.50
2019-05-14T10:43:39.397Z,3.03
2019-05-14T10:46:09.933Z,3.37
2019-05-14T10:48:40.501Z,2.80
2019-05-14T10:51:11.037Z,4.73
2019-05-14T10:53:41.595Z,3.83
2019-05-14T10:56:12.131Z,4.60
2019-05-14T10:58:42.708Z,3.20
2019-05-14T11:01:13.356Z,2.87
2019-05-14T11:03:43.954Z,5.67
2019-05-14T11:06:14.559Z,4.43
2019-05-14T11:08:45.188Z,5.00
2019-05-14T11:11:15.796Z,6.47
2019-05-14T11:13:46.469Z,2.60
2019-05-14T11:16:19.041Z,3.40
2019-05-14T11:18:50.049Z,3.23
2019-05-14T11:21:26.537Z,3.90
2019-05-14T11:23:53.056Z,3.73
2019-05-14T11:26:25.020Z,4.23
2019-05-14T11:28:58.345Z,2.83
2019-05-14T11:31:29.895Z,3.10
2019-05-14T11:33:59.980Z,3.53
2019-05-14T11:36:30.595Z,3.33
2019-05-14T11:39:03.988Z,3.47
2019-05-14T11:41:34.201Z,3.53
2019-05-14T11:44:04.867Z,2.90
2019-05-14T11:46:47.545Z,5.50
2019-05-14T11:49:08.884Z,4.10
2019-05-14T11:51:59.386Z,3.73
2019-05-14T11:54:12.727Z,4.23
2019-05-14T11:56:43.218Z,2.57
2019-05-14T11:59:13.805Z,5.20
2019-05-14T12:01:44.403Z,3.03
2019-05-14T12:04:14.892Z,5.17
2019-05-14T12:06:45.473Z,4.53
2019-05-14T12:09:18.755Z,3.93
2019-05-14T12:11:48.335Z,3.07
2019-05-14T12:14:19.157Z,5.73
2019-05-14T12:16:49.835Z,6.30
2019-05-14T12:19:21.413Z,5.00
2019-05-14T12:22:06.326Z,3.10
2019-05-14T12:24:25.230Z,3.77
2019-05-14T12:26:58.411Z,3.90
2019-05-14T12:29:29.142Z,6.83
2019-05-14T12:32:00.069Z,4.47
2019-05-14T12:34:30.618Z,3.50
2019-05-14T12:37:01.122Z,4.60
2019-05-14T12:39:31.714Z,3.50
2019-05-14T12:42:02.455Z,4.10
2019-05-14T12:44:33.044Z,5.00
2019-05-14T12:47:03.640Z,2.80
2019-05-14T12:49:34.264Z,3.53
2019-05-14T12:52:19.138Z,8.17
2019-05-14T12:54:38.873Z,3.33
2019-05-14T12:57:09.213Z,6.10
2019-05-14T12:59:39.787Z,4.80
2019-05-14T13:02:10.378Z,3.67
2019-05-14T13:04:41.963Z,3.40
2019-05-14T13:07:12.838Z,3.80
2019-05-14T13:09:43.387Z,5.20
2019-05-14T13:12:13.944Z,2.37
2019-05-14T13:14:44.505Z,6.97
2019-05-14T13:17:15.065Z,4.70
2019-05-14T13:19:45.644Z,4.73
2019-05-14T13:22:19.003Z,3.23
2019-05-14T13:24:49.347Z,3.20
2019-05-14T13:27:20.343Z,3.70
2019-05-14T13:29:50.888Z,3.83
2019-05-14T13:32:21.463Z,3.20
2019-05-14T13:34:52.014Z,3.43
2019-05-14T13:37:22.563Z,5.23
2019-05-14T13:39:53.269Z,3.23
2019-05-14T13:45:13.592Z,3.30
2019-05-14T13:47:44.161Z,6.60
2019-05-14T13:50:15.117Z,4.13
2019-05-14T13:53:01.961Z,4.35
2019-05-14T13:58:09.488Z,3.55
2019-05-14T14:00:39.185Z,3.80
2019-05-14T14:03:10.248Z,4.95
2019-05-14T14:05:40.827Z,2.40
2019-05-14T14:08:11.420Z,2.62
2019-05-14T14:10:45.670Z,4.65
2019-05-14T14:13:14.125Z,6.67
2019-05-14T14:15:44.721Z,4.92
2019-05-14T14:18:15.405Z,3.10
2019-05-14T14:23:31.107Z,3.02
2019-05-14T14:26:00.194Z,3.37
2019-05-14T14:28:31.762Z,5.17
2019-05-14T14:31:02.213Z,3.92
2019-05-14T14:33:32.796Z,4.92
2019-05-14T14:36:03.316Z,3.25
2019-05-14T14:38:33.891Z,2.87
2019-05-14T14:41:04.431Z,5.97
2019-05-14T14:43:35.004Z,4.85
2019-05-14T14:46:11.222Z,3.00
2019-05-14T14:48:39.577Z,6.95
2019-05-14T14:51:09.872Z,6.53
2019-05-14T14:53:52.228Z,3.00
2019-05-14T14:56:12.730Z,3.47
2019-05-14T14:58:44.175Z,2.80
2019-05-14T15:01:14.812Z,4.47
2019-05-14T15:03:45.384Z,3.65
2019-05-14T15:06:15.917Z,5.30
2019-05-14T15:08:49.368Z,8.03
2019-05-14T15:11:18.670Z,4.67
2019-05-14T15:13:49.210Z,4.03
2019-05-14T15:16:20.306Z,6.62
2019-05-14T15:18:51.966Z,7.72
2019-05-14T15:21:22.556Z,7.65
2019-05-14T15:24:05.983Z,6.62
2019-05-14T15:26:25.285Z,3.65
2019-05-14T15:28:58.244Z,4.35
2019-05-14T15:31:29.260Z,5.08
2019-05-14T15:34:00.907Z,4.55
2019-05-14T15:36:31.421Z,3.47
2019-05-14T15:39:01.986Z,5.85
2019-05-14T15:41:32.538Z,10.95
2019-05-14T15:44:03.028Z,3.77
2019-05-14T15:46:33.533Z,5.00
2019-05-14T15:49:05.123Z,4.00
2019-05-14T15:51:35.593Z,5.10
2019-05-14T15:54:31.139Z,4.12
2019-05-14T15:56:39.464Z,7.92
2019-05-14T15:59:10.149Z,6.15
2019-05-14T16:01:40.672Z,4.45
2019-05-14T16:04:11.590Z,5.17
2019-05-14T16:06:42.364Z,4.62
2019-05-14T16:09:12.944Z,5.58
2019-05-14T16:11:43.491Z,5.60
2019-05-14T16:14:14.074Z,4.58
2019-05-14T16:16:44.580Z,4.83
2019-05-14T16:19:15.131Z,6.83
2019-05-14T16:21:45.765Z,8.05
2019-05-14T16:27:11.855Z,3.02
2019-05-14T16:29:46.018Z,6.10
2019-05-14T16:32:14.643Z,4.62
2019-05-14T16:34:45.224Z,6.62
2019-05-14T16:37:18.101Z,4.28
2019-05-14T16:39:48.835Z,6.00
2019-05-14T16:42:20.991Z,11.50
2019-05-14T16:44:51.482Z,9.28
2019-05-14T16:47:22.068Z,6.62
2019-05-14T16:49:52.646Z,8.03
2019-05-14T16:52:23.199Z,5.05
2019-05-14T16:55:08.995Z,8.08
2019-05-14T16:57:26.013Z,4.67
2019-05-14T16:59:58.527Z,5.03
2019-05-14T17:02:29.783Z,6.55
2019-05-14T17:05:00.523Z,7.15
2019-05-14T17:07:32.373Z,9.28
2019-05-14T17:10:02.994Z,4.40
2019-05-14T17:12:48.367Z,6.28
2019-05-14T17:15:09.248Z,7.28
2019-05-14T17:17:38.940Z,9.85
2019-05-14T17:20:10.457Z,9.60
2019-05-14T17:22:41.070Z,6.60
2019-05-14T17:25:26.045Z,15.35
2019-05-14T17:27:43.975Z,5.12
2019-05-14T17:30:14.813Z,8.88
2019-05-14T17:32:45.340Z,5.20
2019-05-14T17:35:16.047Z,7.95
2019-05-14T17:37:48.336Z,7.35
2019-05-14T17:40:19.167Z,9.10
2019-05-14T17:42:49.753Z,11.88
2019-05-14T17:45:20.338Z,6.40
2019-05-14T17:47:50.909Z,8.15
2019-05-14T17:50:21.480Z,8.15
2019-05-14T17:55:47.139Z,4.60
2019-05-14T17:58:13.383Z,6.80
2019-05-14T18:00:43.948Z,4.15
2019-05-14T18:03:14.541Z,7.35
2019-05-14T18:05:45.131Z,6.75
2019-05-14T18:08:17.984Z,6.12
2019-05-14T18:10:49.757Z,6.37
2019-05-14T18:13:20.137Z,6.20
2019-05-14T18:15:50.742Z,10.48
2019-05-14T18:18:21.336Z,7.15
2019-05-14T18:20:51.913Z,9.08
2019-05-14T18:23:23.457Z,9.58
2019-05-14T18:26:05.012Z,9.98
2019-05-14T18:31:15.948Z,6.95
2019-05-14T18:33:49.202Z,8.80
2019-05-14T18:36:19.812Z,9.40
2019-05-14T18:38:50.397Z,6.85
2019-05-14T18:41:20.981Z,5.92
2019-05-14T18:43:51.598Z,5.15
2019-05-14T18:46:22.217Z,5.33
2019-05-14T18:48:52.861Z,8.17
2019-05-14T18:51:23.418Z,6.93
2019-05-14T18:53:53.989Z,6.20
2019-05-14T18:56:24.672Z,7.93
2019-05-14T18:58:56.306Z,9.03
2019-05-14T19:01:28.867Z,5.53
2019-05-14T19:03:59.194Z,12.03
2019-05-14T19:06:29.755Z,5.70
2019-05-14T19:09:01.491Z,5.10
2019-05-14T19:11:33.707Z,5.17
2019-05-14T19:14:04.312Z,13.87
2019-05-14T19:16:38.129Z,12.90
2019-05-14T19:19:08.180Z,7.87
2019-05-14T19:21:38.801Z,7.60
2019-05-14T19:24:09.409Z,8.93
2019-05-14T19:26:40.569Z,6.77
2019-05-14T19:29:11.227Z,7.93
2019-05-14T19:31:42.893Z,5.17
2019-05-14T19:34:13.526Z,4.87
2019-05-14T19:36:44.284Z,5.93
2019-05-14T19:39:14.846Z,5.73
2019-05-14T19:41:45.477Z,5.87
2019-05-14T19:44:18.931Z,4.97
2019-05-14T19:46:49.186Z,7.30
2019-05-14T19:49:19.937Z,6.13
2019-05-14T19:51:51.492Z,5.77
2019-05-14T19:54:22.110Z,8.93
2019-05-14T19:56:57.156Z,7.27
2019-05-14T19:59:25.993Z,6.80
2019-05-14T20:01:58.948Z,5.67
2019-05-14T20:04:29.695Z,5.67
2019-05-14T20:07:00.245Z,7.90
2019-05-14T20:09:30.890Z,10.77
2019-05-14T20:12:01.485Z,8.67
2019-05-14T20:14:32.154Z,11.63
2019-05-14T20:17:02.791Z,8.50
2019-05-14T20:19:33.366Z,12.00
2019-05-14T20:22:03.976Z,17.80
2019-05-14T20:24:34.562Z,16.30
2019-05-14T20:27:09.268Z,11.77
2019-05-14T20:29:38.041Z,9.13
2019-05-14T20:32:08.924Z,7.73
2019-05-14T20:34:40.531Z,7.50
2019-05-14T20:37:11.172Z,8.20
2019-05-14T20:39:41.814Z,5.73
2019-05-14T20:42:12.405Z,7.93
2019-05-14T20:44:42.969Z,4.50
2019-05-14T20:47:13.608Z,5.67
2019-05-14T20:49:44.607Z,6.00
2019-05-14T20:52:15.118Z,5.47
2019-05-14T20:54:45.724Z,8.03
2019-05-14T20:57:24.361Z,6.07
2019-05-14T20:59:48.522Z,4.60
2019-05-14T21:02:19.143Z,5.47
2019-05-14T21:04:54.427Z,4.07
2019-05-14T21:07:22.159Z,4.87
2019-05-14T21:09:52.782Z,6.20
2019-05-14T21:12:23.439Z,5.57
2019-05-14T21:14:54.109Z,8.80
2019-05-14T21:17:28.093Z,6.07
2019-05-14T21:19:58.019Z,8.30
2019-05-14T21:25:18.547Z,7.23
2019-05-14T21:27:52.066Z,4.20
2019-05-14T21:30:22.151Z,3.50
2019-05-14T21:32:52.889Z,5.90
2019-05-14T21:35:23.521Z,3.13
2019-05-14T21:37:54.150Z,5.33
2019-05-14T21:40:24.749Z,5.50
2019-05-14T21:42:55.382Z,4.93
2019-05-14T21:45:26.062Z,7.37
2019-05-14T21:47:59.251Z,5.97
2019-05-14T21:50:29.038Z,6.27
2019-05-14T21:52:59.810Z,6.70
2019-05-14T21:55:30.435Z,4.67
2019-05-14T21:58:01.173Z,7.03
2019-05-14T22:00:41.876Z,5.67
2019-05-14T22:03:11.725Z,5.57
2019-05-14T22:05:42.560Z,8.73
2019-05-14T22:08:13.216Z,7.50
2019-05-14T22:10:43.856Z,6.63
2019-05-14T22:13:14.518Z,6.67
2019-05-14T22:15:45.122Z,6.83
2019-05-14T22:18:20.077Z,5.30
2019-05-14T22:20:48.370Z,7.00
2019-05-14T22:23:21.142Z,4.40
2019-05-14T22:25:51.188Z,6.80
2019-05-14T22:31:11.322Z,5.63
2019-05-14T22:33:41.900Z,4.73
2019-05-14T22:36:12.475Z,7.57
2019-05-14T22:38:43.051Z,4.90
2019-05-14T22:41:13.528Z,6.70
2019-05-14T22:46:33.575Z,5.77
2019-05-14T22:49:04.112Z,4.90
2019-05-14T22:51:34.703Z,4.67
2019-05-14T22:54:05.277Z,4.43
2019-05-14T22:56:35.868Z,4.33
2019-05-14T22:59:06.448Z,4.17
2019-05-14T23:01:38.701Z,7.10
2019-05-14T23:06:53.041Z,5.30
2019-05-14T23:09:23.635Z,9.80
2019-05-14T23:11:54.135Z,8.97
2019-05-14T23:14:24.667Z,4.87
2019-05-14T23:16:55.244Z,5.63
2019-05-14T23:19:25.823Z,9.00
2019-05-14T23:21:58.029Z,6.33
2019-05-14T23:24:28.686Z,5.10
2019-05-14T23:26:59.236Z,6.50
2019-05-14T23:32:19.288Z,5.10
2019-05-14T23:34:49.848Z,5.97
2019-05-14T23:37:20.767Z,5.00
2019-05-14T23:39:51.492Z,5.77
2019-05-14T23:42:22.124Z,4.47
2019-05-14T23:44:52.706Z,6.53
2019-05-14T23:47:23.283Z,6.90
2019-05-14T23:49:53.865Z,2.77
2019-05-14T23:52:24.387Z,3.37
2019-05-14T23:54:54.865Z,7.50
2019-05-14T23:57:25.463Z,3.90
2019-05-14T23:59:57.880Z,3.40
